This is the latest recevied weather packets stored in our database for station/object HA8BKG-10. If no packets are shown the sender has not sent any weather packets the latest 10 day(s).
| Time | Temp. | Humidity | Pressure | Rain* | Wind** | Luminosity | Snow |
|---|---|---|---|---|---|---|---|
| 1777551411 | 18.33° C | 30% | 1025.2 hPa | - | - | - | - |
| 1777550510 | 18.33° C | 30% | 1025.5 hPa | - | - | - | - |
| 1777549610 | 18.33° C | 30% | 1025.6 hPa | - | - | - | - |
| 1777548747 | 18.33° C | 31% | 1025.7 hPa | - | - | - | - |
| 1777548710 | 18.33° C | 31% | 1025.7 hPa | - | - | - | - |
| 1777547846 | 18.33° C | 31% | 1025.8 hPa | - | - | - | - |
| 1777547810 | 18.33° C | 31% | 1025.8 hPa | - | - | - | - |
| 1777546910 | 18.33° C | 32% | 1025.8 hPa | - | - | - | - |
| 1777546010 | 18.33° C | 33% | 1025.9 hPa | - | - | - | - |
| 1777545109 | 18.33° C | 33% | 1026 hPa | - | - | - | - |
| 1777544209 | 18.33° C | 32% | 1026.1 hPa | - | - | - | - |
| 1777543309 | 18.89° C | 32% | 1026.1 hPa | - | - | - | - |
| 1777542409 | 18.89° C | 32% | 1026.2 hPa | - | - | - | - |
| 1777541551 | 18.89° C | 31% | 1026.4 hPa | - | - | - | - |
| 1777541509 | 18.89° C | 31% | 1026.4 hPa | - | - | - | - |
| 1777540651 | 18.89° C | 31% | 1026.5 hPa | - | - | - | - |
| 1777540609 | 18.89° C | 31% | 1026.5 hPa | - | - | - | - |
| 1777539708 | 18.89° C | 31% | 1026.5 hPa | - | - | - | - |
| 1777538844 | 18.33° C | 30% | 1026.5 hPa | - | - | - | - |
| 1777538808 | 18.33° C | 30% | 1026.5 hPa | - | - | - | - |
| 1777537908 | 18.89° C | 32% | 1026.5 hPa | - | - | - | - |
| 1777537008 | 18.89° C | 31% | 1026.6 hPa | - | - | - | - |
| 1777536108 | 19.44° C | 31% | 1026.5 hPa | - | - | - | - |
| 1777535208 | 20.56° C | 29% | 1026.4 hPa | - | - | - | - |
| 1777534307 | 19.44° C | 30% | 1026.6 hPa | - | - | - | - |
* Rain since midnight (hover to see other rain measurements)
** Current wind speed in m/s (hover to see current wind gust speed)